Terminal Aerodrome Forecast
Issued by NWS Charleston, WV

Current Version | Previous Version | Graphics & Text | Print | Product List | Glossary On
Versions: 1 2 3 4 5 6 7 8 9 10 11 12 13 14 15 16 17 18 19 20 21 22 23 24 25
692
FTUS41 KRLX 160541
TAFBKW
TAF
KBKW 160541Z 1606/1706 VRB02KT 3SM -RA BR SCT007 OVC015
     FM160800 VRB03KT 2SM -RA BR OVC007
     FM161400 16005KT 4SM BR OVC007
     FM161500 18006KT P6SM OVC015
     FM162300 15005KT P6SM BKN045=

USA.gov is the U.S. government's official web portal to all federal, state and local government web resources and services.